createdAt,value
2019-05-19T00:00:58.451Z,29.27
2019-05-19T00:03:28.808Z,32.07
2019-05-19T00:05:59.239Z,31.87
2019-05-19T00:08:29.691Z,33.37
2019-05-19T00:11:00.140Z,26.53
2019-05-19T00:13:30.490Z,34.93
2019-05-19T00:16:01.271Z,26.23
2019-05-19T00:18:31.676Z,28.20
2019-05-19T00:21:02.055Z,29.10
2019-05-19T00:27:21.413Z,26.30
2019-05-19T00:29:52.045Z,30.33
2019-05-19T00:32:22.868Z,27.43
2019-05-19T00:34:53.264Z,30.30
2019-05-19T00:37:23.667Z,36.60
2019-05-19T00:39:54.075Z,27.83
2019-05-19T00:42:24.505Z,28.73
2019-05-19T00:44:55.864Z,27.20
2019-05-19T00:47:26.307Z,32.53
2019-05-19T00:49:56.668Z,32.67
2019-05-19T00:52:27.060Z,26.80
2019-05-19T00:54:57.906Z,29.57
2019-05-19T00:57:28.326Z,27.43
2019-05-19T00:59:59.582Z,23.47
2019-05-19T01:02:30.329Z,26.60
2019-05-19T01:05:01.022Z,27.60
2019-05-19T01:07:31.428Z,27.17
2019-05-19T01:10:02.144Z,30.10
2019-05-19T01:12:32.548Z,26.90
2019-05-19T01:15:03.884Z,24.33
2019-05-19T01:17:34.316Z,24.13
2019-05-19T01:20:06.878Z,27.77
2019-05-19T01:22:56.683Z,26.77
2019-05-19T01:25:27.593Z,27.87
2019-05-19T01:27:57.974Z,27.43
2019-05-19T01:30:28.427Z,24.40
2019-05-19T01:32:58.961Z,24.90
2019-05-19T01:35:29.337Z,26.40
2019-05-19T01:37:59.714Z,28.30
2019-05-19T01:40:30.395Z,25.53
2019-05-19T01:43:00.805Z,23.53
2019-05-19T01:45:31.313Z,22.27
2019-05-19T01:48:01.691Z,30.33
2019-05-19T01:50:32.077Z,24.63
2019-05-19T01:53:02.489Z,26.57
2019-05-19T01:55:32.879Z,27.30
2019-05-19T01:58:03.245Z,26.10
2019-05-19T02:00:33.899Z,27.00
2019-05-19T02:03:04.340Z,23.33
2019-05-19T02:05:34.738Z,22.70
2019-05-19T02:08:05.091Z,26.40
2019-05-19T02:10:35.497Z,22.00
2019-05-19T02:13:05.903Z,22.10
2019-05-19T02:15:36.310Z,23.87
2019-05-19T02:18:07.328Z,22.90
2019-05-19T02:20:38.082Z,28.50
2019-05-19T02:23:27.969Z,25.10
2019-05-19T02:25:58.362Z,21.00
2019-05-19T02:28:28.748Z,22.37
2019-05-19T02:30:59.127Z,21.57
2019-05-19T02:33:29.935Z,24.30
2019-05-19T02:36:00.555Z,26.20
2019-05-19T02:38:31.340Z,27.93
2019-05-19T02:41:02.023Z,27.73
2019-05-19T02:43:32.472Z,28.97
2019-05-19T02:46:03.560Z,32.10
2019-05-19T02:48:34.024Z,31.20
2019-05-19T02:51:04.713Z,25.93
2019-05-19T02:53:35.363Z,24.80
2019-05-19T02:56:05.787Z,23.83
2019-05-19T02:58:36.546Z,18.77
2019-05-19T03:01:07.275Z,16.53
2019-05-19T03:03:37.722Z,20.93
2019-05-19T03:06:08.088Z,21.50
2019-05-19T03:08:38.461Z,21.20
2019-05-19T03:11:08.815Z,21.73
2019-05-19T03:13:39.308Z,22.67
2019-05-19T03:16:09.686Z,20.80
2019-05-19T03:18:40.689Z,23.70
2019-05-19T03:21:12.140Z,19.23
2019-05-19T03:23:42.958Z,22.17
2019-05-19T03:26:13.711Z,21.90
2019-05-19T03:28:44.437Z,18.63
2019-05-19T03:31:25.471Z,20.03
2019-05-19T03:33:57.829Z,21.17
2019-05-19T03:36:28.620Z,21.60
2019-05-19T03:38:59.029Z,19.90
2019-05-19T03:41:29.430Z,23.83
2019-05-19T03:43:59.982Z,23.90
2019-05-19T03:46:30.347Z,23.23
2019-05-19T03:49:00.714Z,25.53
2019-05-19T03:51:31.966Z,21.30
2019-05-19T03:54:02.917Z,20.23
2019-05-19T03:56:33.686Z,20.53
2019-05-19T03:59:04.519Z,22.07
2019-05-19T04:01:34.899Z,22.87
2019-05-19T04:04:05.595Z,20.90
2019-05-19T04:06:36.019Z,19.70
2019-05-19T04:09:07.655Z,21.33
2019-05-19T04:11:38.373Z,19.57
2019-05-19T04:14:08.756Z,20.33
2019-05-19T04:16:39.143Z,22.87
2019-05-19T04:19:09.893Z,25.10
2019-05-19T04:21:48.879Z,20.63
2019-05-19T04:24:12.726Z,21.27
2019-05-19T04:26:43.150Z,19.80
2019-05-19T04:29:13.797Z,26.43
2019-05-19T04:31:44.147Z,20.20
2019-05-19T04:34:14.558Z,24.77
2019-05-19T04:36:45.077Z,19.67
2019-05-19T04:39:15.450Z,20.30
2019-05-19T04:41:45.889Z,15.53
2019-05-19T04:44:16.273Z,21.00
2019-05-19T04:46:47.024Z,19.40
2019-05-19T04:49:17.434Z,21.03
2019-05-19T04:52:05.201Z,24.33
2019-05-19T04:54:19.898Z,17.40
2019-05-19T04:56:50.642Z,19.73
2019-05-19T04:59:21.387Z,24.47
2019-05-19T05:01:51.832Z,23.80
2019-05-19T05:04:22.551Z,42.80
2019-05-19T05:06:53.776Z,27.80
2019-05-19T05:09:24.488Z,22.87
2019-05-19T05:11:55.141Z,18.33
2019-05-19T05:14:25.865Z,16.27
2019-05-19T05:16:56.280Z,16.10
2019-05-19T05:19:26.634Z,18.60
2019-05-19T05:21:57.351Z,16.77
2019-05-19T05:24:28.823Z,17.63
2019-05-19T05:26:59.730Z,17.23
2019-05-19T05:29:30.132Z,18.33
2019-05-19T05:32:00.778Z,15.33
2019-05-19T05:34:31.156Z,13.73
2019-05-19T05:37:01.943Z,18.53
2019-05-19T05:39:32.557Z,16.03
2019-05-19T05:42:03.330Z,16.80
2019-05-19T05:44:33.729Z,16.13
2019-05-19T05:47:04.447Z,14.17
2019-05-19T05:49:34.848Z,17.17
2019-05-19T05:52:05.778Z,17.37
2019-05-19T05:54:36.124Z,17.73
2019-05-19T05:57:06.919Z,15.77
2019-05-19T05:59:37.293Z,14.23
2019-05-19T06:02:08.037Z,15.80
2019-05-19T06:04:38.432Z,16.70
2019-05-19T06:07:08.771Z,17.20
2019-05-19T06:09:39.224Z,14.67
2019-05-19T06:12:09.677Z,12.67
2019-05-19T06:14:40.021Z,18.67
2019-05-19T06:17:10.393Z,28.83
2019-05-19T06:19:40.820Z,15.90
2019-05-19T06:22:11.191Z,17.00
2019-05-19T06:24:41.596Z,13.40
2019-05-19T06:27:11.973Z,12.73
2019-05-19T06:29:42.391Z,12.83
2019-05-19T06:32:17.391Z,16.60
2019-05-19T06:34:49.455Z,13.73
2019-05-19T06:37:19.828Z,15.30
2019-05-19T06:39:50.172Z,18.63
2019-05-19T06:42:20.686Z,15.13
2019-05-19T06:44:51.094Z,16.10
2019-05-19T06:47:21.475Z,18.50
2019-05-19T06:49:52.135Z,16.60
2019-05-19T06:52:22.912Z,14.67
2019-05-19T06:54:53.259Z,15.43
2019-05-19T06:57:24.026Z,13.30
2019-05-19T06:59:54.503Z,16.27
2019-05-19T07:02:25.186Z,15.40
2019-05-19T07:04:55.933Z,14.40
2019-05-19T07:07:26.655Z,14.10
2019-05-19T07:09:58.736Z,14.23
2019-05-19T07:12:29.092Z,11.43
2019-05-19T07:14:59.450Z,11.70
2019-05-19T07:17:29.870Z,11.00
2019-05-19T07:20:00.560Z,13.90
2019-05-19T07:22:31.285Z,14.47
2019-05-19T07:25:01.692Z,11.67
2019-05-19T07:27:32.297Z,16.10
2019-05-19T07:30:03.106Z,11.53
2019-05-19T07:32:33.819Z,11.17
2019-05-19T07:35:06.343Z,11.80
2019-05-19T07:37:37.088Z,9.60
2019-05-19T07:40:07.459Z,11.50
2019-05-19T07:42:37.854Z,9.47
2019-05-19T07:45:08.736Z,13.50
2019-05-19T07:47:39.327Z,10.13
2019-05-19T07:50:09.984Z,9.43
2019-05-19T07:52:40.367Z,9.10
2019-05-19T07:55:12.697Z,9.47
2019-05-19T07:57:43.470Z,8.07
2019-05-19T08:00:13.824Z,8.60
2019-05-19T08:02:44.737Z,9.03
2019-05-19T08:05:15.426Z,8.70
2019-05-19T08:07:46.378Z,7.80
2019-05-19T08:10:16.805Z,8.00
2019-05-19T08:12:47.529Z,7.27
2019-05-19T08:15:18.136Z,8.50
2019-05-19T08:17:48.886Z,9.80
2019-05-19T08:20:19.586Z,8.80
2019-05-19T08:22:51.456Z,7.53
2019-05-19T08:25:21.966Z,7.23
2019-05-19T08:27:52.314Z,6.50
2019-05-19T08:30:22.702Z,7.97
2019-05-19T08:32:53.068Z,7.97
2019-05-19T08:35:23.440Z,7.60
2019-05-19T08:37:53.782Z,8.33
2019-05-19T08:40:24.538Z,7.90
2019-05-19T08:42:55.231Z,6.87
2019-05-19T08:45:25.613Z,7.33
2019-05-19T08:47:56.318Z,7.00
2019-05-19T08:50:26.720Z,6.87
2019-05-19T08:52:57.064Z,7.90
2019-05-19T08:55:27.468Z,7.00
2019-05-19T08:57:58.173Z,7.03
2019-05-19T09:00:28.976Z,6.90
2019-05-19T09:02:59.348Z,6.50
2019-05-19T09:05:29.723Z,6.23
2019-05-19T09:08:00.157Z,6.77
2019-05-19T09:10:30.878Z,6.50
2019-05-19T09:13:01.690Z,6.33
2019-05-19T09:15:32.091Z,6.10
2019-05-19T09:18:02.458Z,6.07
2019-05-19T09:20:32.796Z,6.20
2019-05-19T09:23:03.569Z,5.53
2019-05-19T09:25:33.962Z,5.73
2019-05-19T09:28:04.698Z,5.07
2019-05-19T09:30:35.397Z,6.33
2019-05-19T09:33:06.072Z,5.20
2019-05-19T09:35:36.447Z,4.83
2019-05-19T09:38:06.803Z,5.53
2019-05-19T09:40:37.610Z,4.63
2019-05-19T09:43:08.412Z,4.80
2019-05-19T09:45:38.774Z,6.50
2019-05-19T09:48:09.213Z,5.23
2019-05-19T09:50:41.777Z,4.57
2019-05-19T09:53:12.506Z,5.47
2019-05-19T09:55:42.882Z,5.20
2019-05-19T09:58:17.091Z,5.17
2019-05-19T10:01:04.778Z,5.23
2019-05-19T10:03:35.528Z,5.30
2019-05-19T10:06:05.868Z,6.20
2019-05-19T10:08:38.823Z,5.70
2019-05-19T10:11:52.479Z,4.90
2019-05-19T10:14:23.258Z,5.43
2019-05-19T10:16:53.607Z,5.80
2019-05-19T10:19:24.009Z,5.73
2019-05-19T10:21:54.711Z,4.90
2019-05-19T10:24:25.089Z,5.37
2019-05-19T10:26:55.859Z,5.30
2019-05-19T10:29:26.311Z,7.33
2019-05-19T10:32:16.117Z,4.87
2019-05-19T10:34:47.229Z,5.13
2019-05-19T10:37:17.787Z,4.83
2019-05-19T10:39:48.483Z,5.07
2019-05-19T10:42:18.808Z,4.83
2019-05-19T10:44:49.210Z,5.90
2019-05-19T10:47:19.531Z,4.97
2019-05-19T10:49:50.228Z,4.67
2019-05-19T10:52:23.673Z,5.27
2019-05-19T10:54:54.330Z,5.70
2019-05-19T10:57:25.056Z,5.13
2019-05-19T10:59:55.791Z,7.30
2019-05-19T11:02:26.124Z,5.00
2019-05-19T11:04:56.562Z,5.50
2019-05-19T11:07:26.889Z,6.10
2019-05-19T11:10:00.278Z,7.33
2019-05-19T11:12:30.598Z,5.30
2019-05-19T11:15:01.002Z,4.90
2019-05-19T11:17:31.347Z,5.37
2019-05-19T11:20:02.054Z,5.80
2019-05-19T11:22:32.513Z,5.40
2019-05-19T11:25:03.202Z,5.27
2019-05-19T11:27:33.842Z,6.90
2019-05-19T11:30:06.518Z,5.03
2019-05-19T11:32:36.850Z,5.20
2019-05-19T11:35:07.395Z,5.70
2019-05-19T11:37:37.795Z,5.60
2019-05-19T11:40:08.149Z,8.20
2019-05-19T11:42:39.032Z,9.07
2019-05-19T11:45:09.362Z,6.17
2019-05-19T11:47:39.747Z,6.60
2019-05-19T11:50:10.507Z,5.93
2019-05-19T11:52:41.166Z,5.50
2019-05-19T11:55:11.505Z,5.30
2019-05-19T11:57:42.206Z,5.57
2019-05-19T12:00:14.233Z,5.67
2019-05-19T12:02:44.589Z,7.53
2019-05-19T12:05:15.040Z,7.43
2019-05-19T12:07:45.402Z,6.93
2019-05-19T12:10:15.772Z,6.67
2019-05-19T12:12:46.130Z,5.80
2019-05-19T12:15:17.295Z,6.27
2019-05-19T12:17:47.655Z,6.93
2019-05-19T12:20:18.018Z,6.87
2019-05-19T12:22:48.615Z,7.43
2019-05-19T12:25:18.999Z,8.80
2019-05-19T12:27:49.456Z,7.70
2019-05-19T12:30:39.756Z,7.70
2019-05-19T12:33:10.129Z,6.87
2019-05-19T12:35:40.536Z,6.87
2019-05-19T12:38:10.926Z,7.13
2019-05-19T12:40:42.197Z,6.83
2019-05-19T12:43:12.712Z,7.10
2019-05-19T12:45:43.434Z,8.40
2019-05-19T12:48:14.018Z,7.13
2019-05-19T12:50:45.119Z,6.73
2019-05-19T12:53:15.497Z,7.27
2019-05-19T12:55:46.065Z,6.93
2019-05-19T12:58:16.420Z,6.73
2019-05-19T13:00:47.164Z,8.80
2019-05-19T13:03:17.961Z,8.33
2019-05-19T13:05:48.295Z,6.27
2019-05-19T13:08:18.687Z,6.63
2019-05-19T13:10:49.330Z,6.70
2019-05-19T13:13:19.685Z,9.70
2019-05-19T13:15:50.066Z,6.60
2019-05-19T13:18:20.431Z,6.10
2019-05-19T13:20:50.916Z,6.60
2019-05-19T13:23:21.334Z,8.13
2019-05-19T13:25:51.693Z,6.10
2019-05-19T13:28:22.546Z,7.25
2019-05-19T13:30:52.927Z,6.07
2019-05-19T13:33:23.622Z,6.90
2019-05-19T13:35:54.030Z,6.10
2019-05-19T13:38:24.384Z,5.93
2019-05-19T13:40:54.988Z,6.90
2019-05-19T13:43:26.926Z,6.97
2019-05-19T13:45:57.793Z,6.30
2019-05-19T13:48:28.135Z,6.07
2019-05-19T13:50:59.384Z,7.37
2019-05-19T13:53:29.748Z,6.57
2019-05-19T13:56:00.116Z,5.73
2019-05-19T13:58:30.446Z,5.93
2019-05-19T14:01:00.861Z,6.77
2019-05-19T14:03:31.462Z,6.20
2019-05-19T14:06:02.669Z,5.97
2019-05-19T14:08:32.997Z,6.30
2019-05-19T14:11:03.452Z,10.20
2019-05-19T14:13:33.824Z,11.40
2019-05-19T14:16:04.161Z,8.03
2019-05-19T14:18:34.551Z,9.57
2019-05-19T14:21:04.914Z,9.00
2019-05-19T14:23:35.347Z,8.83
2019-05-19T14:26:05.689Z,9.50
2019-05-19T14:28:36.435Z,11.10
2019-05-19T14:31:06.862Z,9.23
2019-05-19T14:33:37.227Z,11.57
2019-05-19T14:36:07.700Z,16.00
2019-05-19T14:38:39.740Z,11.27
2019-05-19T14:41:10.518Z,16.23
2019-05-19T14:43:41.560Z,14.53
2019-05-19T14:46:11.957Z,14.67
2019-05-19T14:48:42.518Z,16.60
2019-05-19T14:51:12.890Z,16.73
2019-05-19T14:53:43.315Z,13.17
2019-05-19T14:56:19.543Z,14.57
2019-05-19T14:58:49.989Z,14.63
2019-05-19T15:01:20.756Z,13.03
2019-05-19T15:03:51.537Z,14.77
2019-05-19T15:06:22.265Z,12.87
2019-05-19T15:08:52.636Z,12.93
2019-05-19T15:11:23.437Z,14.07
2019-05-19T15:13:54.216Z,12.73
2019-05-19T15:16:24.911Z,12.80
2019-05-19T15:18:55.663Z,13.77
2019-05-19T15:21:26.039Z,12.00
2019-05-19T15:23:58.026Z,13.53
2019-05-19T15:26:28.577Z,11.97
2019-05-19T15:28:58.949Z,13.33
2019-05-19T15:31:29.339Z,18.33
2019-05-19T15:33:59.769Z,15.23
2019-05-19T15:36:30.178Z,16.27
2019-05-19T15:39:00.595Z,13.80
2019-05-19T15:41:30.974Z,15.13
2019-05-19T15:44:01.782Z,14.47
2019-05-19T15:46:32.534Z,13.30
2019-05-19T15:49:02.880Z,14.13
2019-05-19T15:51:37.428Z,14.00
2019-05-19T15:54:05.844Z,12.40
2019-05-19T15:56:36.259Z,18.73
2019-05-19T15:59:07.028Z,13.93
2019-05-19T16:01:37.431Z,14.23
2019-05-19T16:04:07.799Z,20.03
2019-05-19T16:06:39.171Z,15.23
2019-05-19T16:09:09.756Z,27.13
2019-05-19T16:11:40.169Z,17.80
2019-05-19T16:14:10.531Z,14.90
2019-05-19T16:16:40.928Z,15.43
2019-05-19T16:19:11.307Z,13.20
2019-05-19T16:21:41.686Z,14.87
2019-05-19T16:24:12.056Z,15.73
2019-05-19T16:26:42.453Z,13.27
2019-05-19T16:29:13.181Z,12.17
2019-05-19T16:31:43.833Z,14.33
2019-05-19T16:34:14.962Z,13.90
2019-05-19T16:36:45.329Z,12.77
2019-05-19T16:39:28.577Z,11.23
2019-05-19T16:41:58.941Z,10.47
2019-05-19T16:44:29.648Z,10.63
2019-05-19T16:47:00.025Z,10.50
2019-05-19T16:49:30.444Z,10.47
2019-05-19T16:52:00.807Z,11.50
2019-05-19T16:54:36.228Z,10.17
2019-05-19T16:57:06.558Z,9.53
2019-05-19T16:59:36.907Z,10.37
2019-05-19T17:02:07.317Z,9.90
2019-05-19T17:04:37.653Z,11.53
2019-05-19T17:07:08.072Z,10.43
2019-05-19T17:09:38.464Z,13.00
2019-05-19T17:12:08.846Z,10.80
2019-05-19T17:14:39.476Z,18.27
2019-05-19T17:17:09.803Z,10.40
2019-05-19T17:19:40.191Z,10.50
2019-05-19T17:22:10.564Z,14.23
2019-05-19T17:24:41.013Z,10.20
2019-05-19T17:27:11.616Z,11.87
2019-05-19T17:29:42.472Z,10.93
2019-05-19T17:32:13.225Z,12.30
2019-05-19T17:34:44.006Z,10.23
2019-05-19T17:37:14.749Z,11.50
2019-05-19T17:39:45.094Z,11.33
2019-05-19T17:42:15.522Z,11.40
2019-05-19T17:44:46.704Z,11.97
2019-05-19T17:47:17.011Z,11.70
2019-05-19T17:49:47.400Z,12.40
2019-05-19T17:52:17.754Z,11.37
2019-05-19T17:54:48.711Z,11.10
2019-05-19T17:57:19.166Z,11.70
2019-05-19T17:59:49.873Z,14.57
2019-05-19T18:02:21.997Z,12.70
2019-05-19T18:04:52.386Z,13.07
2019-05-19T18:07:22.763Z,16.43
2019-05-19T18:09:53.138Z,13.07
2019-05-19T18:12:25.186Z,13.63
2019-05-19T18:14:55.897Z,12.60
2019-05-19T18:17:26.626Z,13.07
2019-05-19T18:19:56.998Z,12.17
2019-05-19T18:22:27.688Z,16.63
2019-05-19T18:24:58.034Z,13.10
2019-05-19T18:27:28.462Z,12.10
2019-05-19T18:29:59.195Z,12.00
2019-05-19T18:32:29.614Z,13.17
2019-05-19T18:35:00.427Z,14.97
2019-05-19T18:37:30.891Z,14.03
2019-05-19T18:40:03.696Z,11.73
2019-05-19T18:42:35.826Z,12.63
2019-05-19T18:45:07.828Z,14.10
2019-05-19T18:47:38.200Z,11.13
2019-05-19T18:50:08.846Z,10.53
2019-05-19T18:52:39.161Z,10.50
2019-05-19T18:55:09.857Z,11.10
2019-05-19T18:57:40.253Z,11.40
2019-05-19T19:00:10.616Z,10.90
2019-05-19T19:02:40.979Z,17.53
2019-05-19T19:05:11.614Z,12.57
2019-05-19T19:07:52.456Z,16.73
2019-05-19T19:10:22.863Z,11.17
2019-05-19T19:12:53.247Z,11.63
2019-05-19T19:15:24.302Z,13.63
2019-05-19T19:17:54.648Z,11.37
2019-05-19T19:20:25.251Z,10.80
2019-05-19T19:22:55.622Z,12.30
2019-05-19T19:25:25.999Z,12.03
2019-05-19T19:27:57.096Z,11.63
2019-05-19T19:30:27.495Z,13.27
2019-05-19T19:32:57.906Z,11.93
2019-05-19T19:35:38.330Z,11.60
2019-05-19T19:38:00.472Z,13.10
2019-05-19T19:40:31.639Z,12.30
2019-05-19T19:43:02.044Z,14.03
2019-05-19T19:45:32.538Z,11.73
2019-05-19T19:48:02.949Z,9.20
2019-05-19T19:50:33.892Z,10.57
2019-05-19T19:53:04.233Z,13.30
2019-05-19T19:55:35.255Z,10.80
2019-05-19T19:58:05.651Z,10.17
2019-05-19T20:00:55.791Z,9.33
2019-05-19T20:03:26.275Z,10.57
2019-05-19T20:05:56.964Z,9.43
2019-05-19T20:08:29.268Z,11.47
2019-05-19T20:10:59.640Z,10.10
2019-05-19T20:13:30.438Z,10.33
2019-05-19T20:16:00.817Z,10.40
2019-05-19T20:18:31.185Z,10.67
2019-05-19T20:21:01.558Z,12.33
2019-05-19T20:23:32.048Z,13.30
2019-05-19T20:26:03.069Z,14.03
2019-05-19T20:28:33.417Z,13.87
2019-05-19T20:31:03.797Z,15.07
2019-05-19T20:33:34.452Z,14.40
2019-05-19T20:36:07.737Z,15.97
2019-05-19T20:38:38.114Z,18.80
2019-05-19T20:41:08.456Z,17.70
2019-05-19T20:43:38.872Z,15.23
2019-05-19T20:46:09.506Z,14.50
2019-05-19T20:48:39.883Z,21.67
2019-05-19T20:51:10.269Z,14.90
2019-05-19T20:53:40.631Z,17.43
2019-05-19T20:56:11.419Z,15.17
2019-05-19T20:58:41.791Z,15.90
2019-05-19T21:01:12.550Z,15.70
2019-05-19T21:03:42.887Z,16.53
2019-05-19T21:06:13.727Z,17.90
2019-05-19T21:08:44.067Z,15.33
2019-05-19T21:11:14.503Z,15.73
2019-05-19T21:13:45.133Z,17.20
2019-05-19T21:16:16.126Z,16.57
2019-05-19T21:18:46.881Z,17.53
2019-05-19T21:21:17.239Z,15.93
2019-05-19T21:23:47.881Z,15.53
2019-05-19T21:26:18.255Z,18.37
2019-05-19T21:28:48.674Z,16.50
2019-05-19T21:31:19.426Z,17.27
2019-05-19T21:33:49.859Z,17.63
2019-05-19T21:36:20.582Z,16.40
2019-05-19T21:38:51.033Z,17.10
2019-05-19T21:41:21.399Z,17.13
2019-05-19T21:43:52.031Z,18.23
2019-05-19T21:46:22.456Z,16.67
2019-05-19T21:48:53.253Z,18.53
2019-05-19T21:51:24.030Z,28.07
2019-05-19T21:53:54.770Z,20.53
2019-05-19T21:56:25.117Z,19.97
2019-05-19T21:58:55.512Z,20.07
2019-05-19T22:01:26.714Z,18.90
2019-05-19T22:03:57.086Z,19.77
2019-05-19T22:06:29.150Z,18.33
2019-05-19T22:08:59.845Z,22.47
2019-05-19T22:11:30.608Z,19.00
2019-05-19T22:14:01.355Z,19.57
2019-05-19T22:16:32.266Z,19.90
2019-05-19T22:19:03.002Z,25.73
2019-05-19T22:21:33.751Z,20.97
2019-05-19T22:24:04.187Z,18.20
2019-05-19T22:26:34.559Z,24.97
2019-05-19T22:29:04.892Z,21.40
2019-05-19T22:31:37.151Z,20.73
2019-05-19T22:34:08.046Z,21.37
2019-05-19T22:36:38.443Z,20.37
2019-05-19T22:39:08.784Z,22.67
2019-05-19T22:41:39.411Z,20.40
2019-05-19T22:44:10.031Z,18.77
2019-05-19T22:46:40.828Z,24.63
2019-05-19T22:49:11.156Z,23.13
2019-05-19T22:51:42.345Z,20.27
2019-05-19T22:54:13.051Z,21.77
2019-05-19T22:56:43.735Z,21.80
2019-05-19T22:59:19.834Z,23.00
2019-05-19T23:01:51.761Z,26.87
2019-05-19T23:04:18.859Z,25.77
2019-05-19T23:06:49.250Z,28.97
2019-05-19T23:09:19.614Z,22.63
2019-05-19T23:11:50.320Z,21.47
2019-05-19T23:14:20.710Z,25.60
2019-05-19T23:16:51.074Z,27.60
2019-05-19T23:19:21.643Z,28.93
2019-05-19T23:21:52.017Z,28.83
2019-05-19T23:24:22.414Z,27.50
2019-05-19T23:26:52.791Z,31.70
2019-05-19T23:29:24.061Z,25.47
2019-05-19T23:32:06.200Z,23.97
2019-05-19T23:34:26.998Z,23.60
2019-05-19T23:36:57.397Z,25.00
2019-05-19T23:39:27.726Z,24.33
2019-05-19T23:41:58.123Z,24.60
2019-05-19T23:44:28.634Z,21.80
2019-05-19T23:46:59.304Z,24.30
2019-05-19T23:49:29.754Z,26.20
2019-05-19T23:52:00.483Z,27.67
2019-05-19T23:54:30.880Z,30.50
2019-05-19T23:57:01.280Z,30.67
2019-05-19T23:59:31.930Z,29.53
